Skip Navigation LinksHome page > Weather > Current weather Skip Navigation Links

Current Weather

Jakutsk, Russia

For information only: do not use for flight planning or navigation.
Latest weather
Observation time Friday, May 25, 2018 9:30 PM JST
Local time Friday, May 25, 2018 9:45 PM JST
Flight conditions Visual Meteorological Conditions
Winds
Wind direction North (10°)
Wind speed 7 mph
Visibility 6.2 mi.
Sky condition
Ceiling unlimited
Sky clear
Temperature 66°F
Dewpoint 34°F
Altimeter 29.80 in.Hg
Precipitation
QF 9:28 AM
Derived measurements
Relative humidity 30%
Density altitude 1052 ft.
Remarks
Ceiling and visibility OK.
No significant changes expected in the next two hours.
METAR UEEE 251230Z 01003MPS CAVOK 19/01 Q1009 R23L/09//60 NOSIG RMK QFE748

Settings

Location code

InnerDrive.Weather 4.0.6615.0 Release CLR 4.0.30319.42000
Copyright ©2018 Inner Drive Technology. All rights reserved. Portions Copyright ©1986-2018 David Braverman.

Find weather

Site navigation


Skip Navigation Links

Place info

Page info

PayPal - The safer, easier way to pay online!

Return home.

Copyright ©2018 Inner Drive Technology. Purveyors of fine, hand-crafted computer software. Page printed 2018-05-25T12:45:54 UTC.